sensor_id;sensor_type;location;lat;lon;timestamp;pressure;altitude;pressure_sealevel;temperature;humidity
9289;BME280;4683;50.864;12.086;2022-08-06T00:00:11;99739.00;;;18.62;100.00
9289;BME280;4683;50.864;12.086;2022-08-06T00:02:40;99740.97;;;18.73;100.00
9289;BME280;4683;50.864;12.086;2022-08-06T00:05:09;99731.94;;;18.68;100.00
9289;BME280;4683;50.864;12.086;2022-08-06T00:07:38;99739.41;;;18.59;100.00
9289;BME280;4683;50.864;12.086;2022-08-06T00:10:08;99741.25;;;18.59;100.00
9289;BME280;4683;50.864;12.086;2022-08-06T00:12:36;99737.81;;;18.51;100.00
9289;BME280;4683;50.864;12.086;2022-08-06T00:15:09;99745.63;;;18.53;100.00
9289;BME280;4683;50.864;12.086;2022-08-06T00:17:40;99742.38;;;18.44;100.00
9289;BME280;4683;50.864;12.086;2022-08-06T00:20:11;99755.28;;;18.54;100.00
9289;BME280;4683;50.864;12.086;2022-08-06T00:22:40;99768.19;;;18.57;100.00
9289;BME280;4683;50.864;12.086;2022-08-06T00:25:09;99762.84;;;18.57;100.00
9289;BME280;4683;50.864;12.086;2022-08-06T00:27:38;99762.41;;;18.60;100.00
9289;BME280;4683;50.864;12.086;2022-08-06T00:30:10;99762.47;;;18.54;100.00
9289;BME280;4683;50.864;12.086;2022-08-06T00:32:38;99767.41;;;18.50;100.00
9289;BME280;4683;50.864;12.086;2022-08-06T00:35:08;99764.19;;;18.41;100.00
9289;BME280;4683;50.864;12.086;2022-08-06T00:37:36;99766.22;;;18.39;100.00
9289;BME280;4683;50.864;12.086;2022-08-06T00:40:55;99767.50;;;18.30;100.00
9289;BME280;4683;50.864;12.086;2022-08-06T00:43:27;99772.84;;;18.30;100.00
9289;BME280;4683;50.864;12.086;2022-08-06T00:45:57;99785.84;;;18.27;100.00
9289;BME280;4683;50.864;12.086;2022-08-06T00:48:26;99779.47;;;18.21;99.98
9289;BME280;4683;50.864;12.086;2022-08-06T00:50:54;99793.44;;;18.23;99.72
9289;BME280;4683;50.864;12.086;2022-08-06T00:53:23;99780.31;;;18.21;98.78
9289;BME280;4683;50.864;12.086;2022-08-06T00:55:51;99779.91;;;18.18;98.70
9289;BME280;4683;50.864;12.086;2022-08-06T00:58:19;99788.97;;;18.17;98.75
9289;BME280;4683;50.864;12.086;2022-08-06T01:00:48;99779.75;;;18.13;98.57
9289;BME280;4683;50.864;12.086;2022-08-06T01:03:17;99778.53;;;18.09;98.64
9289;BME280;4683;50.864;12.086;2022-08-06T01:05:46;99783.22;;;18.07;98.99
9289;BME280;4683;50.864;12.086;2022-08-06T01:08:16;99782.47;;;17.99;99.15
9289;BME280;4683;50.864;12.086;2022-08-06T01:10:45;99780.19;;;17.96;99.60
9289;BME280;4683;50.864;12.086;2022-08-06T01:13:13;99793.16;;;17.93;99.19
9289;BME280;4683;50.864;12.086;2022-08-06T01:15:50;99795.22;;;17.84;99.02
9289;BME280;4683;50.864;12.086;2022-08-06T01:18:28;99800.56;;;17.84;99.21
9289;BME280;4683;50.864;12.086;2022-08-06T01:21:13;99805.09;;;17.77;98.84
9289;BME280;4683;50.864;12.086;2022-08-06T01:24:02;99803.84;;;17.80;99.09
9289;BME280;4683;50.864;12.086;2022-08-06T01:26:44;99815.75;;;17.90;98.76
9289;BME280;4683;50.864;12.086;2022-08-06T01:29:23;99812.28;;;17.77;99.91
9289;BME280;4683;50.864;12.086;2022-08-06T01:31:57;99805.88;;;17.71;99.69
9289;BME280;4683;50.864;12.086;2022-08-06T01:34:35;99822.34;;;17.68;99.99
9289;BME280;4683;50.864;12.086;2022-08-06T01:37:12;99831.78;;;17.64;100.00
9289;BME280;4683;50.864;12.086;2022-08-06T01:39:48;99830.75;;;17.65;99.58
9289;BME280;4683;50.864;12.086;2022-08-06T01:42:19;99830.53;;;17.73;98.10
9289;BME280;4683;50.864;12.086;2022-08-06T01:44:53;99831.97;;;17.69;98.59
9289;BME280;4683;50.864;12.086;2022-08-06T01:47:25;99841.22;;;17.73;97.92
9289;BME280;4683;50.864;12.086;2022-08-06T01:50:03;99840.00;;;17.56;98.80
9289;BME280;4683;50.864;12.086;2022-08-06T01:52:36;99840.22;;;17.54;99.39
9289;BME280;4683;50.864;12.086;2022-08-06T01:55:10;99844.09;;;17.52;100.00
9289;BME280;4683;50.864;12.086;2022-08-06T01:57:45;99843.69;;;17.41;100.00
9289;BME280;4683;50.864;12.086;2022-08-06T02:00:17;99838.38;;;17.41;100.00
9289;BME280;4683;50.864;12.086;2022-08-06T02:02:47;99834.06;;;17.54;99.76
9289;BME280;4683;50.864;12.086;2022-08-06T02:05:19;99848.22;;;17.47;98.97
9289;BME280;4683;50.864;12.086;2022-08-06T02:07:51;99852.31;;;17.37;99.02
9289;BME280;4683;50.864;12.086;2022-08-06T02:10:22;99856.63;;;17.24;98.56
9289;BME280;4683;50.864;12.086;2022-08-06T02:12:52;99857.44;;;17.25;98.43
9289;BME280;4683;50.864;12.086;2022-08-06T02:15:27;99858.03;;;17.20;97.43
9289;BME280;4683;50.864;12.086;2022-08-06T02:17:58;99863.16;;;17.15;97.08
9289;BME280;4683;50.864;12.086;2022-08-06T02:20:33;99875.66;;;17.02;96.76
9289;BME280;4683;50.864;12.086;2022-08-06T02:23:06;99877.69;;;16.93;96.76
9289;BME280;4683;50.864;12.086;2022-08-06T02:25:37;99881.38;;;16.85;96.76
9289;BME280;4683;50.864;12.086;2022-08-06T02:28:07;99882.59;;;16.83;95.52
9289;BME280;4683;50.864;12.086;2022-08-06T02:30:43;99889.34;;;16.72;95.68
9289;BME280;4683;50.864;12.086;2022-08-06T02:33:12;99895.47;;;16.72;95.53
9289;BME280;4683;50.864;12.086;2022-08-06T02:35:48;99893.03;;;16.78;95.74
9289;BME280;4683;50.864;12.086;2022-08-06T02:38:24;99903.25;;;16.74;94.46
9289;BME280;4683;50.864;12.086;2022-08-06T02:40:57;99903.91;;;16.76;94.90
9289;BME280;4683;50.864;12.086;2022-08-06T02:43:35;99895.50;;;16.79;93.66
9289;BME280;4683;50.864;12.086;2022-08-06T02:46:12;99892.00;;;16.72;94.59
9289;BME280;4683;50.864;12.086;2022-08-06T02:48:47;99893.25;;;16.83;94.82
9289;BME280;4683;50.864;12.086;2022-08-06T02:55:29;99914.97;;;16.80;94.57
9289;BME280;4683;50.864;12.086;2022-08-06T02:58:07;99912.50;;;16.78;93.09
9289;BME280;4683;50.864;12.086;2022-08-06T03:00:41;99911.28;;;16.81;93.78
9289;BME280;4683;50.864;12.086;2022-08-06T03:03:14;99912.94;;;16.88;94.36
9289;BME280;4683;50.864;12.086;2022-08-06T03:05:44;99929.16;;;16.93;92.83
9289;BME280;4683;50.864;12.086;2022-08-06T03:08:18;99936.75;;;16.90;91.50
9289;BME280;4683;50.864;12.086;2022-08-06T03:10:49;99940.00;;;16.85;91.14
9289;BME280;4683;50.864;12.086;2022-08-06T03:13:18;99934.69;;;16.85;91.42
9289;BME280;4683;50.864;12.086;2022-08-06T03:15:50;99938.75;;;16.81;90.94
9289;BME280;4683;50.864;12.086;2022-08-06T03:18:22;99947.16;;;16.78;89.76
9289;BME280;4683;50.864;12.086;2022-08-06T03:20:51;99939.53;;;16.75;89.14
9289;BME280;4683;50.864;12.086;2022-08-06T03:23:22;99946.03;;;16.66;88.52
9289;BME280;4683;50.864;12.086;2022-08-06T03:25:54;99950.03;;;16.48;88.64
9289;BME280;4683;50.864;12.086;2022-08-06T03:28:24;99947.44;;;16.55;89.36
9289;BME280;4683;50.864;12.086;2022-08-06T03:30:54;99955.88;;;16.65;88.68
9289;BME280;4683;50.864;12.086;2022-08-06T03:33:26;99949.75;;;16.71;88.79
9289;BME280;4683;50.864;12.086;2022-08-06T03:35:58;99937.44;;;16.64;89.52
9289;BME280;4683;50.864;12.086;2022-08-06T03:38:31;99941.88;;;16.57;90.25
9289;BME280;4683;50.864;12.086;2022-08-06T03:41:02;99942.69;;;16.51;91.95
9289;BME280;4683;50.864;12.086;2022-08-06T03:43:31;99953.66;;;16.34;92.84
9289;BME280;4683;50.864;12.086;2022-08-06T03:46:04;99969.59;;;16.28;94.14
9289;BME280;4683;50.864;12.086;2022-08-06T03:48:39;99966.28;;;16.26;94.05
9289;BME280;4683;50.864;12.086;2022-08-06T03:51:13;99962.13;;;16.16;94.08
9289;BME280;4683;50.864;12.086;2022-08-06T03:53:46;99964.69;;;16.03;95.56
9289;BME280;4683;50.864;12.086;2022-08-06T03:56:20;99974.69;;;15.94;96.89
9289;BME280;4683;50.864;12.086;2022-08-06T03:58:51;99972.28;;;16.00;97.47
9289;BME280;4683;50.864;12.086;2022-08-06T04:01:24;99981.91;;;16.01;97.32
9289;BME280;4683;50.864;12.086;2022-08-06T04:03:55;99983.91;;;15.98;96.86
9289;BME280;4683;50.864;12.086;2022-08-06T04:06:25;99978.78;;;15.97;97.33
9289;BME280;4683;50.864;12.086;2022-08-06T04:08:57;99978.56;;;15.92;97.48
9289;BME280;4683;50.864;12.086;2022-08-06T04:11:28;99983.66;;;15.93;98.21
9289;BME280;4683;50.864;12.086;2022-08-06T04:13:58;99989.00;;;15.93;97.83
9289;BME280;4683;50.864;12.086;2022-08-06T04:16:28;99995.56;;;15.97;97.39
9289;BME280;4683;50.864;12.086;2022-08-06T04:19:06;100001.31;;;15.94;96.75
9289;BME280;4683;50.864;12.086;2022-08-06T04:21:36;99994.88;;;15.89;97.36
9289;BME280;4683;50.864;12.086;2022-08-06T04:24:05;99999.22;;;15.90;97.82
9289;BME280;4683;50.864;12.086;2022-08-06T04:26:34;100013.38;;;15.97;97.18
9289;BME280;4683;50.864;12.086;2022-08-06T04:29:11;100011.53;;;15.97;96.30
9289;BME280;4683;50.864;12.086;2022-08-06T04:31:39;100023.69;;;16.07;95.84
9289;BME280;4683;50.864;12.086;2022-08-06T04:34:13;100013.69;;;16.09;95.66
9289;BME280;4683;50.864;12.086;2022-08-06T04:36:44;100028.66;;;16.10;94.77
9289;BME280;4683;50.864;12.086;2022-08-06T04:39:12;100039.91;;;16.12;95.88
9289;BME280;4683;50.864;12.086;2022-08-06T04:41:42;100033.72;;;16.26;94.32
9289;BME280;4683;50.864;12.086;2022-08-06T04:44:11;100033.88;;;16.24;94.08
9289;BME280;4683;50.864;12.086;2022-08-06T04:46:40;100036.78;;;16.30;93.72
9289;BME280;4683;50.864;12.086;2022-08-06T04:49:12;100040.13;;;16.38;92.69
9289;BME280;4683;50.864;12.086;2022-08-06T04:51:45;100042.84;;;16.45;92.49
9289;BME280;4683;50.864;12.086;2022-08-06T04:54:15;100047.59;;;16.49;91.64
9289;BME280;4683;50.864;12.086;2022-08-06T04:56:44;100043.94;;;16.57;91.78
9289;BME280;4683;50.864;12.086;2022-08-06T04:59:13;100053.13;;;16.76;89.50
9289;BME280;4683;50.864;12.086;2022-08-06T05:01:42;100058.09;;;16.86;88.43
9289;BME280;4683;50.864;12.086;2022-08-06T05:04:12;100060.53;;;16.81;88.63
9289;BME280;4683;50.864;12.086;2022-08-06T05:06:46;100070.34;;;16.80;88.44
9289;BME280;4683;50.864;12.086;2022-08-06T05:09:22;100058.94;;;16.93;87.39
9289;BME280;4683;50.864;12.086;2022-08-06T05:11:56;100061.81;;;16.91;86.52
9289;BME280;4683;50.864;12.086;2022-08-06T05:14:39;100071.22;;;16.87;86.41
9289;BME280;4683;50.864;12.086;2022-08-06T05:17:13;100072.63;;;16.83;87.45
9289;BME280;4683;50.864;12.086;2022-08-06T05:19:49;100082.16;;;16.99;85.96
9289;BME280;4683;50.864;12.086;2022-08-06T05:22:19;100077.91;;;17.11;85.44
9289;BME280;4683;50.864;12.086;2022-08-06T05:24:49;100075.13;;;17.33;84.46
9289;BME280;4683;50.864;12.086;2022-08-06T05:27:17;100077.63;;;17.47;83.56
9289;BME280;4683;50.864;12.086;2022-08-06T05:29:47;100079.72;;;17.59;82.84
9289;BME280;4683;50.864;12.086;2022-08-06T05:32:16;100077.41;;;17.42;83.38
9289;BME280;4683;50.864;12.086;2022-08-06T05:34:49;100082.59;;;17.57;81.67
9289;BME280;4683;50.864;12.086;2022-08-06T05:37:17;100084.38;;;17.37;82.12
9289;BME280;4683;50.864;12.086;2022-08-06T05:39:47;100085.53;;;17.21;83.20
9289;BME280;4683;50.864;12.086;2022-08-06T05:42:16;100090.97;;;16.99;83.13
9289;BME280;4683;50.864;12.086;2022-08-06T05:44:44;100097.19;;;16.79;82.96
9289;BME280;4683;50.864;12.086;2022-08-06T05:47:18;100095.38;;;16.58;84.84
9289;BME280;4683;50.864;12.086;2022-08-06T05:49:56;100098.25;;;16.56;85.30
9289;BME280;4683;50.864;12.086;2022-08-06T05:52:31;100096.41;;;16.57;85.83
9289;BME280;4683;50.864;12.086;2022-08-06T05:55:08;100096.69;;;16.68;84.49
9289;BME280;4683;50.864;12.086;2022-08-06T05:57:49;100104.06;;;16.94;83.81
9289;BME280;4683;50.864;12.086;2022-08-06T06:00:20;100105.38;;;17.12;83.69
9289;BME280;4683;50.864;12.086;2022-08-06T06:02:54;100107.66;;;17.15;82.45
9289;BME280;4683;50.864;12.086;2022-08-06T06:05:27;100108.34;;;17.30;81.74
9289;BME280;4683;50.864;12.086;2022-08-06T06:07:57;100118.47;;;17.41;81.14
9289;BME280;4683;50.864;12.086;2022-08-06T06:10:27;100119.41;;;17.27;80.31
9289;BME280;4683;50.864;12.086;2022-08-06T06:12:57;100126.09;;;17.10;81.00
9289;BME280;4683;50.864;12.086;2022-08-06T06:15:27;100122.84;;;17.14;80.37
9289;BME280;4683;50.864;12.086;2022-08-06T06:18:09;100123.53;;;17.30;79.48
9289;BME280;4683;50.864;12.086;2022-08-06T06:20:50;100124.63;;;17.48;78.97
9289;BME280;4683;50.864;12.086;2022-08-06T06:23:29;100127.13;;;17.50;79.00
9289;BME280;4683;50.864;12.086;2022-08-06T06:26:15;100124.47;;;17.57;78.37
9289;BME280;4683;50.864;12.086;2022-08-06T06:28:54;100122.00;;;17.62;77.96
9289;BME280;4683;50.864;12.086;2022-08-06T06:31:40;100115.84;;;17.61;77.31
9289;BME280;4683;50.864;12.086;2022-08-06T06:35:01;100113.06;;;17.76;76.63
9289;BME280;4683;50.864;12.086;2022-08-06T06:37:43;100115.75;;;17.83;76.55
9289;BME280;4683;50.864;12.086;2022-08-06T06:40:27;100116.19;;;17.86;76.14
9289;BME280;4683;50.864;12.086;2022-08-06T06:43:04;100111.66;;;17.93;76.00
9289;BME280;4683;50.864;12.086;2022-08-06T06:45:39;100120.50;;;18.00;75.48
9289;BME280;4683;50.864;12.086;2022-08-06T06:48:18;100118.06;;;18.06;74.76
9289;BME280;4683;50.864;12.086;2022-08-06T06:50:57;100124.44;;;18.05;71.76
9289;BME280;4683;50.864;12.086;2022-08-06T06:53:34;100127.50;;;17.95;73.29
9289;BME280;4683;50.864;12.086;2022-08-06T06:56:04;100119.66;;;17.93;73.22
9289;BME280;4683;50.864;12.086;2022-08-06T06:58:39;100131.47;;;17.71;73.30
9289;BME280;4683;50.864;12.086;2022-08-06T07:01:12;100135.31;;;18.10;72.77
9289;BME280;4683;50.864;12.086;2022-08-06T07:03:43;100129.19;;;18.36;71.31
9289;BME280;4683;50.864;12.086;2022-08-06T07:06:13;100132.47;;;18.31;71.17
9289;BME280;4683;50.864;12.086;2022-08-06T07:08:47;100126.09;;;18.45;70.29
9289;BME280;4683;50.864;12.086;2022-08-06T07:11:21;100129.59;;;18.59;69.16
9289;BME280;4683;50.864;12.086;2022-08-06T07:13:57;100125.69;;;18.75;68.49
9289;BME280;4683;50.864;12.086;2022-08-06T07:16:28;100123.00;;;18.48;66.51
9289;BME280;4683;50.864;12.086;2022-08-06T07:19:01;100129.19;;;18.56;67.69
9289;BME280;4683;50.864;12.086;2022-08-06T07:21:32;100130.41;;;18.33;67.37
9289;BME280;4683;50.864;12.086;2022-08-06T07:24:04;100134.94;;;18.26;68.31
9289;BME280;4683;50.864;12.086;2022-08-06T07:26:33;100135.16;;;18.51;68.12
9289;BME280;4683;50.864;12.086;2022-08-06T07:29:04;100135.38;;;18.49;68.59
9289;BME280;4683;50.864;12.086;2022-08-06T07:31:33;100132.69;;;18.83;66.47
9289;BME280;4683;50.864;12.086;2022-08-06T07:34:02;100146.06;;;18.76;66.53
9289;BME280;4683;50.864;12.086;2022-08-06T07:36:35;100144.00;;;18.91;65.68
9289;BME280;4683;50.864;12.086;2022-08-06T07:39:11;100136.59;;;18.87;65.22
9289;BME280;4683;50.864;12.086;2022-08-06T07:41:42;100138.63;;;19.05;64.61
9289;BME280;4683;50.864;12.086;2022-08-06T07:44:13;100142.72;;;19.07;62.79
9289;BME280;4683;50.864;12.086;2022-08-06T07:46:44;100141.91;;;19.00;63.68
9289;BME280;4683;50.864;12.086;2022-08-06T07:49:22;100149.31;;;19.05;64.43
9289;BME280;4683;50.864;12.086;2022-08-06T07:51:52;100154.25;;;19.08;64.70
9289;BME280;4683;50.864;12.086;2022-08-06T07:54:26;100146.97;;;19.35;63.39
9289;BME280;4683;50.864;12.086;2022-08-06T07:56:58;100151.75;;;19.26;63.01
9289;BME280;4683;50.864;12.086;2022-08-06T07:59:28;100155.34;;;19.51;62.95
9289;BME280;4683;50.864;12.086;2022-08-06T08:01:57;100154.97;;;19.41;61.29
9289;BME280;4683;50.864;12.086;2022-08-06T08:04:28;100150.72;;;19.85;59.70
9289;BME280;4683;50.864;12.086;2022-08-06T08:07:15;100159.00;;;19.77;58.59
9289;BME280;4683;50.864;12.086;2022-08-06T08:09:46;100152.19;;;19.74;59.11
9289;BME280;4683;50.864;12.086;2022-08-06T08:12:18;100156.72;;;19.81;58.40
9289;BME280;4683;50.864;12.086;2022-08-06T08:14:49;100158.38;;;20.13;55.29
9289;BME280;4683;50.864;12.086;2022-08-06T08:17:19;100159.38;;;20.19;56.73
9289;BME280;4683;50.864;12.086;2022-08-06T08:19:55;100146.44;;;20.66;55.55
9289;BME280;4683;50.864;12.086;2022-08-06T08:23:11;100165.78;;;20.74;54.71
9289;BME280;4683;50.864;12.086;2022-08-06T08:29:15;100156.19;;;20.85;55.61
9289;BME280;4683;50.864;12.086;2022-08-06T08:31:44;100163.03;;;20.56;56.08
9289;BME280;4683;50.864;12.086;2022-08-06T08:34:12;100157.59;;;20.06;57.15
9289;BME280;4683;50.864;12.086;2022-08-06T08:36:40;100165.44;;;20.01;57.65
9289;BME280;4683;50.864;12.086;2022-08-06T08:39:09;100167.44;;;19.74;58.57
9289;BME280;4683;50.864;12.086;2022-08-06T08:41:40;100162.03;;;20.19;55.34
9289;BME280;4683;50.864;12.086;2022-08-06T08:44:20;100159.69;;;20.61;53.57
9289;BME280;4683;50.864;12.086;2022-08-06T08:46:50;100151.78;;;20.72;51.97
9289;BME280;4683;50.864;12.086;2022-08-06T08:49:25;100152.19;;;20.69;52.82
9289;BME280;4683;50.864;12.086;2022-08-06T08:51:59;100157.72;;;20.99;51.18
9289;BME280;4683;50.864;12.086;2022-08-06T08:54:33;100156.94;;;20.92;49.21
9289;BME280;4683;50.864;12.086;2022-08-06T08:57:08;100149.06;;;20.47;50.86
9289;BME280;4683;50.864;12.086;2022-08-06T08:59:42;100155.22;;;20.55;49.95
9289;BME280;4683;50.864;12.086;2022-08-06T09:02:13;100150.06;;;20.78;49.88
9289;BME280;4683;50.864;12.086;2022-08-06T09:04:43;100150.19;;;20.65;50.32
9289;BME280;4683;50.864;12.086;2022-08-06T09:07:13;100150.25;;;21.01;49.35
9289;BME280;4683;50.864;12.086;2022-08-06T09:09:42;100144.31;;;21.18;47.71
9289;BME280;4683;50.864;12.086;2022-08-06T09:12:11;100144.38;;;21.29;46.35
9289;BME280;4683;50.864;12.086;2022-08-06T09:14:41;100145.06;;;21.43;46.43
9289;BME280;4683;50.864;12.086;2022-08-06T09:17:11;100149.91;;;21.35;47.60
9289;BME280;4683;50.864;12.086;2022-08-06T09:19:40;100146.22;;;21.66;47.76
9289;BME280;4683;50.864;12.086;2022-08-06T09:22:10;100140.75;;;21.42;48.61
9289;BME280;4683;50.864;12.086;2022-08-06T09:24:40;100150.09;;;21.15;48.50
9289;BME280;4683;50.864;12.086;2022-08-06T09:27:17;100155.06;;;21.36;48.29
9289;BME280;4683;50.864;12.086;2022-08-06T09:29:52;100158.50;;;21.43;46.29
9289;BME280;4683;50.864;12.086;2022-08-06T09:32:40;100148.03;;;21.17;46.26
9289;BME280;4683;50.864;12.086;2022-08-06T09:35:21;100141.78;;;21.23;46.83
9289;BME280;4683;50.864;12.086;2022-08-06T09:38:00;100138.81;;;21.49;46.49
9289;BME280;4683;50.864;12.086;2022-08-06T09:40:32;100137.00;;;21.62;45.43
9289;BME280;4683;50.864;12.086;2022-08-06T09:43:01;100137.13;;;21.30;45.99
9289;BME280;4683;50.864;12.086;2022-08-06T09:45:31;100146.22;;;21.36;46.13
9289;BME280;4683;50.864;12.086;2022-08-06T09:48:05;100139.16;;;21.35;46.23
9289;BME280;4683;50.864;12.086;2022-08-06T09:50:40;100142.59;;;21.60;45.92
9289;BME280;4683;50.864;12.086;2022-08-06T09:53:14;100140.25;;;21.82;46.14
9289;BME280;4683;50.864;12.086;2022-08-06T09:55:44;100148.44;;;21.87;46.47
9289;BME280;4683;50.864;12.086;2022-08-06T09:58:13;100145.00;;;21.98;46.05
9289;BME280;4683;50.864;12.086;2022-08-06T10:00:45;100142.44;;;22.03;45.27
9289;BME280;4683;50.864;12.086;2022-08-06T10:03:13;100154.78;;;22.23;45.69
9289;BME280;4683;50.864;12.086;2022-08-06T10:05:42;100149.56;;;22.10;45.76
9289;BME280;4683;50.864;12.086;2022-08-06T10:08:15;100144.50;;;22.01;43.99
9289;BME280;4683;50.864;12.086;2022-08-06T10:10:47;100153.94;;;21.92;44.34
9289;BME280;4683;50.864;12.086;2022-08-06T10:13:23;100161.31;;;21.67;43.48
9289;BME280;4683;50.864;12.086;2022-08-06T10:15:58;100160.06;;;21.51;44.19
9289;BME280;4683;50.864;12.086;2022-08-06T10:18:39;100148.28;;;21.34;42.42
9289;BME280;4683;50.864;12.086;2022-08-06T10:21:11;100149.44;;;21.74;44.47
9289;BME280;4683;50.864;12.086;2022-08-06T10:23:41;100148.81;;;22.21;43.73
9289;BME280;4683;50.864;12.086;2022-08-06T10:26:16;100149.56;;;22.51;43.26
9289;BME280;4683;50.864;12.086;2022-08-06T10:28:48;100130.75;;;22.51;42.78
9289;BME280;4683;50.864;12.086;2022-08-06T10:31:21;100136.94;;;22.40;43.34
9289;BME280;4683;50.864;12.086;2022-08-06T10:33:57;100124.22;;;22.83;42.33
9289;BME280;4683;50.864;12.086;2022-08-06T10:36:31;100138.34;;;22.54;42.18
9289;BME280;4683;50.864;12.086;2022-08-06T10:39:04;100137.13;;;21.97;43.46
9289;BME280;4683;50.864;12.086;2022-08-06T10:41:36;100131.88;;;21.90;43.73
9289;BME280;4683;50.864;12.086;2022-08-06T10:44:08;100132.00;;;22.37;42.83
9289;BME280;4683;50.864;12.086;2022-08-06T10:46:38;100127.50;;;22.73;42.14
9289;BME280;4683;50.864;12.086;2022-08-06T10:49:06;100132.88;;;22.85;41.34
9289;BME280;4683;50.864;12.086;2022-08-06T10:51:37;100133.56;;;23.15;41.23
9289;BME280;4683;50.864;12.086;2022-08-06T10:54:07;100124.06;;;23.36;41.00
9289;BME280;4683;50.864;12.086;2022-08-06T10:56:40;100127.41;;;22.91;42.28
9289;BME280;4683;50.864;12.086;2022-08-06T10:59:13;100133.09;;;22.83;42.73
9289;BME280;4683;50.864;12.086;2022-08-06T11:01:52;100123.06;;;22.67;42.04
9289;BME280;4683;50.864;12.086;2022-08-06T11:04:38;100115.78;;;22.67;41.83
9289;BME280;4683;50.864;12.086;2022-08-06T11:08:08;100128.78;;;22.59;41.34
9289;BME280;4683;50.864;12.086;2022-08-06T11:11:22;100119.16;;;22.74;41.67
9289;BME280;4683;50.864;12.086;2022-08-06T11:14:02;100116.84;;;22.78;41.04
9289;BME280;4683;50.864;12.086;2022-08-06T11:16:33;100112.97;;;22.86;41.49
9289;BME280;4683;50.864;12.086;2022-08-06T11:19:06;100101.66;;;22.95;39.64
9289;BME280;4683;50.864;12.086;2022-08-06T11:21:41;100108.66;;;22.96;40.06
9289;BME280;4683;50.864;12.086;2022-08-06T11:24:11;100095.22;;;22.85;40.48
9289;BME280;4683;50.864;12.086;2022-08-06T11:26:44;100103.41;;;22.90;40.07
9289;BME280;4683;50.864;12.086;2022-08-06T11:29:14;100098.34;;;22.93;39.29
9289;BME280;4683;50.864;12.086;2022-08-06T11:31:46;100094.72;;;23.11;39.18
9289;BME280;4683;50.864;12.086;2022-08-06T11:34:22;100099.16;;;23.06;39.14
9289;BME280;4683;50.864;12.086;2022-08-06T11:37:07;100090.03;;;22.83;39.40
9289;BME280;4683;50.864;12.086;2022-08-06T11:40:06;100088.75;;;22.97;39.88
9289;BME280;4683;50.864;12.086;2022-08-06T11:42:42;100080.25;;;23.29;38.98
9289;BME280;4683;50.864;12.086;2022-08-06T11:45:14;100093.16;;;23.27;38.90
9289;BME280;4683;50.864;12.086;2022-08-06T11:48:05;100086.50;;;23.18;38.70
9289;BME280;4683;50.864;12.086;2022-08-06T11:51:10;100095.78;;;22.75;38.83
9289;BME280;4683;50.864;12.086;2022-08-06T11:54:12;100086.53;;;22.47;38.53
9289;BME280;4683;50.864;12.086;2022-08-06T11:57:20;100088.28;;;22.30;38.83
9289;BME280;4683;50.864;12.086;2022-08-06T12:00:15;100073.38;;;22.04;39.99
9289;BME280;4683;50.864;12.086;2022-08-06T12:02:51;100076.13;;;22.27;39.85
9289;BME280;4683;50.864;12.086;2022-08-06T12:05:42;100079.41;;;22.65;40.07
9289;BME280;4683;50.864;12.086;2022-08-06T12:08:25;100082.56;;;22.85;39.55
9289;BME280;4683;50.864;12.086;2022-08-06T12:11:28;100075.69;;;22.89;39.58
9289;BME280;4683;50.864;12.086;2022-08-06T12:13:59;100082.56;;;23.09;39.49
9289;BME280;4683;50.864;12.086;2022-08-06T12:16:37;100073.06;;;23.18;38.75
9289;BME280;4683;50.864;12.086;2022-08-06T12:19:13;100097.94;;;23.25;38.13
9289;BME280;4683;50.864;12.086;2022-08-06T12:21:42;100083.72;;;23.13;38.19
9289;BME280;4683;50.864;12.086;2022-08-06T12:24:25;100070.75;;;22.98;37.92
9289;BME280;4683;50.864;12.086;2022-08-06T12:26:59;100074.00;;;23.12;38.34
9289;BME280;4683;50.864;12.086;2022-08-06T12:29:30;100082.66;;;23.14;37.43
9289;BME280;4683;50.864;12.086;2022-08-06T12:31:58;100069.88;;;23.21;37.05
9289;BME280;4683;50.864;12.086;2022-08-06T12:34:28;100076.72;;;23.40;36.66
9289;BME280;4683;50.864;12.086;2022-08-06T12:36:57;100075.38;;;23.54;36.83
9289;BME280;4683;50.864;12.086;2022-08-06T12:39:27;100062.63;;;23.50;36.73
9289;BME280;4683;50.864;12.086;2022-08-06T12:42:25;100060.59;;;23.57;37.03
9289;BME280;4683;50.864;12.086;2022-08-06T12:44:55;100069.09;;;23.77;36.63
9289;BME280;4683;50.864;12.086;2022-08-06T12:47:25;100066.06;;;23.74;36.47
9289;BME280;4683;50.864;12.086;2022-08-06T12:50:00;100062.81;;;23.72;36.75
9289;BME280;4683;50.864;12.086;2022-08-06T12:52:28;100063.84;;;23.42;36.87
9289;BME280;4683;50.864;12.086;2022-08-06T12:54:58;100054.69;;;23.43;36.91
9289;BME280;4683;50.864;12.086;2022-08-06T12:57:28;100056.75;;;23.65;36.90
9289;BME280;4683;50.864;12.086;2022-08-06T12:59:58;100062.81;;;23.60;37.33
9289;BME280;4683;50.864;12.086;2022-08-06T13:02:27;100059.72;;;23.80;36.60
9289;BME280;4683;50.864;12.086;2022-08-06T13:04:57;100058.66;;;23.81;36.05
9289;BME280;4683;50.864;12.086;2022-08-06T13:07:29;100062.47;;;23.68;36.62
9289;BME280;4683;50.864;12.086;2022-08-06T13:10:01;100064.00;;;23.64;36.70
9289;BME280;4683;50.864;12.086;2022-08-06T13:12:37;100056.44;;;23.78;36.11
9289;BME280;4683;50.864;12.086;2022-08-06T13:15:12;100058.84;;;23.63;36.78
9289;BME280;4683;50.864;12.086;2022-08-06T13:17:41;100052.44;;;23.52;37.36
9289;BME280;4683;50.864;12.086;2022-08-06T13:20:10;100076.09;;;23.50;37.51
9289;BME280;4683;50.864;12.086;2022-08-06T13:22:50;100049.13;;;23.33;36.55
9289;BME280;4683;50.864;12.086;2022-08-06T13:29:25;100060.19;;;23.77;36.35
9289;BME280;4683;50.864;12.086;2022-08-06T13:32:07;100058.56;;;23.76;35.35
9289;BME280;4683;50.864;12.086;2022-08-06T13:34:47;100053.94;;;23.60;36.27
9289;BME280;4683;50.864;12.086;2022-08-06T13:37:43;100050.66;;;23.58;36.14
9289;BME280;4683;50.864;12.086;2022-08-06T13:40:13;100050.91;;;23.85;35.89
9289;BME280;4683;50.864;12.086;2022-08-06T13:42:51;100055.28;;;23.74;35.46
9289;BME280;4683;50.864;12.086;2022-08-06T13:45:23;100044.97;;;23.71;36.23
9289;BME280;4683;50.864;12.086;2022-08-06T13:48:01;100046.56;;;23.67;35.54
9289;BME280;4683;50.864;12.086;2022-08-06T13:50:33;100045.16;;;23.64;35.89